sensor_id;sensor_type;location;lat;lon;timestamp;pressure;altitude;pressure_sealevel;temperature;humidity
53089;BME280;38968;47.696;17.540;2023-02-02T00:02:38;10030790.0;;;5.75;67.67188
53089;BME280;38968;47.696;17.540;2023-02-02T00:07:38;10030320.0;;;6.3;65.07324
53089;BME280;38968;47.696;17.540;2023-02-02T00:12:37;10028860.0;;;6.64;63.80957
53089;BME280;38968;47.696;17.540;2023-02-02T00:17:37;10029380.0;;;6.53;64.11133
53089;BME280;38968;47.696;17.540;2023-02-02T00:22:37;10029030.0;;;6.6;63.73633
53089;BME280;38968;47.696;17.540;2023-02-02T00:27:37;10028770.0;;;6.47;64.50879
53089;BME280;38968;47.696;17.540;2023-02-02T00:32:37;10027300.0;;;6.61;63.9082
53089;BME280;38968;47.696;17.540;2023-02-02T00:37:38;10026340.0;;;6.38;64.73535
53089;BME280;38968;47.696;17.540;2023-02-02T00:42:38;10024870.0;;;6.37;65.49316
53089;BME280;38968;47.696;17.540;2023-02-02T00:47:37;10026600.0;;;6.38;65.50586
53089;BME280;38968;47.696;17.540;2023-02-02T00:52:37;10026690.0;;;6.47;65.16602
53089;BME280;38968;47.696;17.540;2023-02-02T00:57:38;10028590.0;;;6.5;65.30859
53089;BME280;38968;47.696;17.540;2023-02-02T01:02:37;10027130.0;;;6.75;63.83789
53089;BME280;38968;47.696;17.540;2023-02-02T01:07:38;10026350.0;;;6.78;63.85352
53089;BME280;38968;47.696;17.540;2023-02-02T01:12:37;10024800.0;;;6.77;63.18164
53089;BME280;38968;47.696;17.540;2023-02-02T01:17:38;10026560.0;;;5.85;67.59668
53089;BME280;38968;47.696;17.540;2023-02-02T01:22:38;10025310.0;;;6.6;64.18848
53089;BME280;38968;47.696;17.540;2023-02-02T01:27:37;10025220.0;;;6.68;62.94238
53089;BME280;38968;47.696;17.540;2023-02-02T01:32:38;10024100.0;;;6.65;63.52734
53089;BME280;38968;47.696;17.540;2023-02-02T01:37:38;10022280.0;;;6.54;62.32129
53089;BME280;38968;47.696;17.540;2023-02-02T01:42:37;10021070.0;;;6.73;61.26953
53089;BME280;38968;47.696;17.540;2023-02-02T01:47:40;10022710.0;;;6.64;60.74707
53089;BME280;38968;47.696;17.540;2023-02-02T01:52:38;10024700.0;;;6.52;60.35449
53089;BME280;38968;47.696;17.540;2023-02-02T01:58:01;10026870.0;;;6.63;59.84766
53089;BME280;38968;47.696;17.540;2023-02-02T02:02:38;10027990.0;;;6.6;60.45703
53089;BME280;38968;47.696;17.540;2023-02-02T02:07:39;10028930.0;;;6.35;61.65918
53089;BME280;38968;47.696;17.540;2023-02-02T02:12:37;10030740.0;;;6.11;62.42871
53089;BME280;38968;47.696;17.540;2023-02-02T02:33:01;10030490.0;;;5.33;66.89551
53089;BME280;38968;47.696;17.540;2023-02-02T02:42:40;10028590.0;;;5.36;66.86426
53089;BME280;38968;47.696;17.540;2023-02-02T02:47:38;10025420.0;;;5.58;65.99512
53089;BME280;38968;47.696;17.540;2023-02-02T02:52:38;10024790.0;;;5.3;67.45508
53089;BME280;38968;47.696;17.540;2023-02-02T02:57:50;10024540.0;;;5.4;66.73535
53089;BME280;38968;47.696;17.540;2023-02-02T03:07:41;10025310.0;;;5.38;66.55176
53089;BME280;38968;47.696;17.540;2023-02-02T03:12:44;10026460.0;;;5.63;65.4707
53089;BME280;38968;47.696;17.540;2023-02-02T03:17:38;10026030.0;;;5.63;64.96289
53089;BME280;38968;47.696;17.540;2023-02-02T03:22:37;10026350.0;;;5.41;64.96289
53089;BME280;38968;47.696;17.540;2023-02-02T03:27:38;10027060.0;;;5.59;64.63867
53089;BME280;38968;47.696;17.540;2023-02-02T03:32:38;10028930.0;;;5.27;65.23535
53089;BME280;38968;47.696;17.540;2023-02-02T03:37:37;10028690.0;;;5.43;64.38867
53089;BME280;38968;47.696;17.540;2023-02-02T03:42:37;10027740.0;;;5.43;64.9541
53089;BME280;38968;47.696;17.540;2023-02-02T03:47:37;10027390.0;;;5.44;64.85449
53089;BME280;38968;47.696;17.540;2023-02-02T03:52:37;10026690.0;;;5.29;65.1709
53089;BME280;38968;47.696;17.540;2023-02-02T03:57:37;10025880.0;;;4.97;65.61816
53089;BME280;38968;47.696;17.540;2023-02-02T04:02:38;10026150.0;;;5.14;65.27246
53089;BME280;38968;47.696;17.540;2023-02-02T04:07:37;10026830.0;;;4.97;65.81055
53089;BME280;38968;47.696;17.540;2023-02-02T04:12:37;10026650.0;;;4.93;65.80566
53089;BME280;38968;47.696;17.540;2023-02-02T04:17:38;10027050.0;;;4.66;66.3291
53089;BME280;38968;47.696;17.540;2023-02-02T04:22:38;10026550.0;;;4.86;66.16699
53089;BME280;38968;47.696;17.540;2023-02-02T04:27:37;10026220.0;;;4.9;65.54102
53089;BME280;38968;47.696;17.540;2023-02-02T04:32:37;10027250.0;;;4.89;65.80957
53089;BME280;38968;47.696;17.540;2023-02-02T04:37:37;10027650.0;;;4.64;66.49414
53089;BME280;38968;47.696;17.540;2023-02-02T04:42:37;10027180.0;;;4.32;67.58301
53089;BME280;38968;47.696;17.540;2023-02-02T04:47:37;10028680.0;;;4.61;67.13086
53089;BME280;38968;47.696;17.540;2023-02-02T04:52:37;10029350.0;;;4.43;66.99121
53089;BME280;38968;47.696;17.540;2023-02-02T04:57:37;10029120.0;;;4.65;66.76465
53089;BME280;38968;47.696;17.540;2023-02-02T05:02:39;10029280.0;;;4.57;66.44824
53089;BME280;38968;47.696;17.540;2023-02-02T05:07:38;10029920.0;;;4.8;66.31543
53089;BME280;38968;47.696;17.540;2023-02-02T05:12:37;10029850.0;;;4.96;65.44922
53089;BME280;38968;47.696;17.540;2023-02-02T05:17:37;10030540.0;;;4.97;64.96387
53089;BME280;38968;47.696;17.540;2023-02-02T05:22:38;10031060.0;;;4.93;65.01465
53089;BME280;38968;47.696;17.540;2023-02-02T05:27:38;10030630.0;;;5.04;64.61328
53089;BME280;38968;47.696;17.540;2023-02-02T05:32:37;10031640.0;;;4.75;65.14453
53089;BME280;38968;47.696;17.540;2023-02-02T05:37:37;10031930.0;;;4.99;64.5498
53089;BME280;38968;47.696;17.540;2023-02-02T05:42:37;10030800.0;;;4.93;64.35938
53089;BME280;38968;47.696;17.540;2023-02-02T05:47:37;10030880.0;;;4.96;64.44434
53089;BME280;38968;47.696;17.540;2023-02-02T05:52:38;10031330.0;;;5.08;63.88379
53089;BME280;38968;47.696;17.540;2023-02-02T05:57:37;10030540.0;;;4.99;64.06445
53089;BME280;38968;47.696;17.540;2023-02-02T06:02:37;10029530.0;;;5.17;63.70605
53089;BME280;38968;47.696;17.540;2023-02-02T06:07:38;10029890.0;;;5.36;63.36035
53089;BME280;38968;47.696;17.540;2023-02-02T06:12:37;10030080.0;;;5.51;62.8623
53089;BME280;38968;47.696;17.540;2023-02-02T06:17:38;10031300.0;;;5.62;62.39258
53089;BME280;38968;47.696;17.540;2023-02-02T06:22:37;10031570.0;;;5.75;62.03711
53089;BME280;38968;47.696;17.540;2023-02-02T06:27:37;10031390.0;;;5.69;61.7793
53089;BME280;38968;47.696;17.540;2023-02-02T06:32:38;10031760.0;;;5.94;60.93164
53089;BME280;38968;47.696;17.540;2023-02-02T06:37:37;10032350.0;;;5.84;61.00684
53089;BME280;38968;47.696;17.540;2023-02-02T06:42:37;10033330.0;;;6.14;60.40332
53089;BME280;38968;47.696;17.540;2023-02-02T06:47:37;10033690.0;;;6.27;59.96777
53089;BME280;38968;47.696;17.540;2023-02-02T06:52:38;10035260.0;;;6.4;59.37305
53089;BME280;38968;47.696;17.540;2023-02-02T06:57:37;10036820.0;;;6.57;59.05566
53089;BME280;38968;47.696;17.540;2023-02-02T07:02:38;10036570.0;;;6.68;58.92285
53089;BME280;38968;47.696;17.540;2023-02-02T07:07:37;10038130.0;;;6.76;58.66113
53089;BME280;38968;47.696;17.540;2023-02-02T07:12:37;10038740.0;;;6.72;58.22461
53089;BME280;38968;47.696;17.540;2023-02-02T07:17:38;10039780.0;;;6.75;57.9668
53089;BME280;38968;47.696;17.540;2023-02-02T07:22:38;10040220.0;;;6.83;57.86426
53089;BME280;38968;47.696;17.540;2023-02-02T07:27:37;10040390.0;;;6.83;58.0918
53089;BME280;38968;47.696;17.540;2023-02-02T07:32:37;10042040.0;;;6.99;57.77148
53089;BME280;38968;47.696;17.540;2023-02-02T07:37:37;10041870.0;;;6.9;58.2373
53089;BME280;38968;47.696;17.540;2023-02-02T07:42:37;10041960.0;;;7.04;57.68848
53089;BME280;38968;47.696;17.540;2023-02-02T07:47:37;10041180.0;;;7.01;57.74023
53089;BME280;38968;47.696;17.540;2023-02-02T07:52:38;10042230.0;;;7.22;56.80176
53089;BME280;38968;47.696;17.540;2023-02-02T07:57:37;10042490.0;;;7.33;56.63379
53089;BME280;38968;47.696;17.540;2023-02-02T08:02:38;10042670.0;;;7.36;56.36426
53089;BME280;38968;47.696;17.540;2023-02-02T08:07:38;10042850.0;;;7.47;55.53711
53089;BME280;38968;47.696;17.540;2023-02-02T08:12:37;10043540.0;;;7.56;55.16113
53089;BME280;38968;47.696;17.540;2023-02-02T08:17:37;10043110.0;;;7.75;54.79688
53089;BME280;38968;47.696;17.540;2023-02-02T08:22:38;10043460.0;;;7.71;54.89355
53089;BME280;38968;47.696;17.540;2023-02-02T08:27:37;10042940.0;;;7.89;54.67773
53089;BME280;38968;47.696;17.540;2023-02-02T08:32:37;10044510.0;;;7.91;53.48242
53089;BME280;38968;47.696;17.540;2023-02-02T08:37:37;10042600.0;;;7.95;53.4873
53089;BME280;38968;47.696;17.540;2023-02-02T08:42:37;10043120.0;;;7.95;51.72949
53089;BME280;38968;47.696;17.540;2023-02-02T08:47:37;10043200.0;;;8.04;51.52344
53089;BME280;38968;47.696;17.540;2023-02-02T08:52:38;10042950.0;;;8.3;50.22852
53089;BME280;38968;47.696;17.540;2023-02-02T08:57:38;10043640.0;;;8.33;50.42578
53089;BME280;38968;47.696;17.540;2023-02-02T09:02:37;10044160.0;;;8.09;51.27637
53089;BME280;38968;47.696;17.540;2023-02-02T09:07:38;10042340.0;;;8.09;50.94531
53089;BME280;38968;47.696;17.540;2023-02-02T09:12:37;10042860.0;;;8.32;50.05859
53089;BME280;38968;47.696;17.540;2023-02-02T09:17:37;10042690.0;;;8.38;50.375
53089;BME280;38968;47.696;17.540;2023-02-02T09:22:37;10041650.0;;;8.49;48.95703
53089;BME280;38968;47.696;17.540;2023-02-02T09:27:38;10043120.0;;;8.67;49.0127
53089;BME280;38968;47.696;17.540;2023-02-02T09:32:37;10043470.0;;;8.64;47.87695
53089;BME280;38968;47.696;17.540;2023-02-02T09:37:37;10044680.0;;;8.85;47.54395
53089;BME280;38968;47.696;17.540;2023-02-02T09:52:45;10044760.0;;;9.05;48.24316
53089;BME280;38968;47.696;17.540;2023-02-02T09:57:40;10046060.0;;;9.36;48.53906
53089;BME280;38968;47.696;17.540;2023-02-02T10:02:39;10044310.0;;;9.5;48.14355
53089;BME280;38968;47.696;17.540;2023-02-02T10:07:40;10044500.0;;;9.25;48.0459
53089;BME280;38968;47.696;17.540;2023-02-02T10:13:01;10045100.0;;;9.32;47.20508
53089;BME280;38968;47.696;17.540;2023-02-02T10:17:57;10044330.0;;;9.2;47.67383
53089;BME280;38968;47.696;17.540;2023-02-02T10:22:38;10044420.0;;;9.03;47.98828
53089;BME280;38968;47.696;17.540;2023-02-02T10:27:38;10045200.0;;;8.77;48.69238
53089;BME280;38968;47.696;17.540;2023-02-02T10:32:46;10043190.0;;;9.38;47.40723
53089;BME280;38968;47.696;17.540;2023-02-02T10:37:49;10043030.0;;;8.95;47.42871
53089;BME280;38968;47.696;17.540;2023-02-02T10:47:37;10043730.0;;;8.66;48.19824
53089;BME280;38968;47.696;17.540;2023-02-02T10:52:43;10045200.0;;;8.88;48.26953
53089;BME280;38968;47.696;17.540;2023-02-02T10:57:51;10043120.0;;;8.85;47.7959
53089;BME280;38968;47.696;17.540;2023-02-02T11:02:38;10044600.0;;;8.45;48.23242
53089;BME280;38968;47.696;17.540;2023-02-02T11:07:37;10043030.0;;;9;48.58008
53089;BME280;38968;47.696;17.540;2023-02-02T11:12:41;10042590.0;;;9.08;48.74902
53089;BME280;38968;47.696;17.540;2023-02-02T11:17:37;10042070.0;;;9.11;47.38965
53089;BME280;38968;47.696;17.540;2023-02-02T11:22:38;10043110.0;;;9.11;48.10059
53089;BME280;38968;47.696;17.540;2023-02-02T11:27:39;10043010.0;;;9.44;48.24023
53089;BME280;38968;47.696;17.540;2023-02-02T11:32:37;10041980.0;;;9.03;47.53027
53089;BME280;38968;47.696;17.540;2023-02-02T11:37:38;10043460.0;;;8.96;47.5791
53089;BME280;38968;47.696;17.540;2023-02-02T11:42:40;10043700.0;;;9.48;47.25781
53089;BME280;38968;47.696;17.540;2023-02-02T11:47:37;10043350.0;;;9.68;46.42969
53089;BME280;38968;47.696;17.540;2023-02-02T11:52:38;10043440.0;;;9.56;46.43945
53089;BME280;38968;47.696;17.540;2023-02-02T11:57:37;10044830.0;;;9.56;47.12891
53089;BME280;38968;47.696;17.540;2023-02-02T12:02:44;10042150.0;;;9.28;45.87109
53089;BME280;38968;47.696;17.540;2023-02-02T12:07:38;10044590.0;;;9.17;46.87988
53089;BME280;38968;47.696;17.540;2023-02-02T12:17:42;10045810.0;;;8.81;47.57422
53089;BME280;38968;47.696;17.540;2023-02-02T12:32:46;10045640.0;;;8.4;48.99414
53089;BME280;38968;47.696;17.540;2023-02-02T12:38:00;10046080.0;;;8.49;48.69434
53089;BME280;38968;47.696;17.540;2023-02-02T13:07:45;10045640.0;;;8.74;48.43555
53089;BME280;38968;47.696;17.540;2023-02-02T13:17:48;10045640.0;;;8.08;49.73438
53089;BME280;38968;47.696;17.540;2023-02-02T13:22:39;10046420.0;;;8.66;48.62305
53089;BME280;38968;47.696;17.540;2023-02-02T13:27:38;10045550.0;;;8.69;48.60254
53089;BME280;38968;47.696;17.540;2023-02-02T13:32:39;10046080.0;;;8.44;48.95215
53089;BME280;38968;47.696;17.540;2023-02-02T13:38:01;10046510.0;;;8.61;48.4668
53089;BME280;38968;47.696;17.540;2023-02-02T13:47:40;10047730.0;;;8.48;48.91113
53089;BME280;38968;47.696;17.540;2023-02-02T14:02:39;10049290.0;;;8.62;49.29297
53089;BME280;38968;47.696;17.540;2023-02-02T14:07:42;10049200.0;;;8.47;49.5957
53089;BME280;38968;47.696;17.540;2023-02-02T14:12:38;10049370.0;;;8.35;49.81055
53089;BME280;38968;47.696;17.540;2023-02-02T14:22:47;10050240.0;;;8.4;49.8623
53089;BME280;38968;47.696;17.540;2023-02-02T14:27:52;10051110.0;;;8.51;49.50977
53089;BME280;38968;47.696;17.540;2023-02-02T14:32:41;10051800.0;;;8.2;50.23926
53089;BME280;38968;47.696;17.540;2023-02-02T14:37:55;10051890.0;;;8.36;50.01758
53089;BME280;38968;47.696;17.540;2023-02-02T14:43:08;10052240.0;;;8.45;49.75391
53089;BME280;38968;47.696;17.540;2023-02-02T14:47:53;10052500.0;;;8.28;50.31836
53089;BME280;38968;47.696;17.540;2023-02-02T14:52:37;10052160.0;;;8.46;50.12109
53089;BME280;38968;47.696;17.540;2023-02-02T14:57:37;10053110.0;;;8.43;49.94629
53089;BME280;38968;47.696;17.540;2023-02-02T15:02:38;10053290.0;;;8.48;49.91797
53089;BME280;38968;47.696;17.540;2023-02-02T15:07:49;10054140.0;;;8.14;50.7002
53089;BME280;38968;47.696;17.540;2023-02-02T15:12:39;10054500.0;;;8.34;50.2793
53089;BME280;38968;47.696;17.540;2023-02-02T15:17:44;10054140.0;;;8.08;50.68262
53089;BME280;38968;47.696;17.540;2023-02-02T15:22:42;10053630.0;;;8.3;50.43457
53089;BME280;38968;47.696;17.540;2023-02-02T15:27:38;10055270.0;;;8.1;50.9707
53089;BME280;38968;47.696;17.540;2023-02-02T15:32:38;10055530.0;;;8.16;50.93164
53089;BME280;38968;47.696;17.540;2023-02-02T15:37:38;10055110.0;;;8.42;50.4375
53089;BME280;38968;47.696;17.540;2023-02-02T15:42:42;10056230.0;;;8.3;50.77734
53089;BME280;38968;47.696;17.540;2023-02-02T15:47:38;10057010.0;;;8.24;51.11328
53089;BME280;38968;47.696;17.540;2023-02-02T15:52:43;10057270.0;;;8.18;50.85547
53089;BME280;38968;47.696;17.540;2023-02-02T15:57:38;10058570.0;;;8.11;51.25684
53089;BME280;38968;47.696;17.540;2023-02-02T16:02:39;10058920.0;;;8.08;51.37988
53089;BME280;38968;47.696;17.540;2023-02-02T16:07:38;10059610.0;;;8.12;51.43066
53089;BME280;38968;47.696;17.540;2023-02-02T16:12:38;10059760.0;;;7.61;52.7041
53089;BME280;38968;47.696;17.540;2023-02-02T16:17:38;10060800.0;;;7.47;53.41797
53089;BME280;38968;47.696;17.540;2023-02-02T16:22:39;10060110.0;;;7.63;53.12793
53089;BME280;38968;47.696;17.540;2023-02-02T16:27:39;10062090.0;;;7.34;54.2207
53089;BME280;38968;47.696;17.540;2023-02-02T16:32:38;10063060.0;;;7.67;53.39551
53089;BME280;38968;47.696;17.540;2023-02-02T16:37:37;10063160.0;;;7.89;52.71582
53089;BME280;38968;47.696;17.540;2023-02-02T16:42:37;10065050.0;;;7.6;53.50098
53089;BME280;38968;47.696;17.540;2023-02-02T16:47:38;10064380.0;;;7.99;52.64746
53089;BME280;38968;47.696;17.540;2023-02-02T16:57:38;10066890.0;;;7.83;53.30176
53089;BME280;38968;47.696;17.540;2023-02-02T17:02:39;10067380.0;;;7.43;54.62012
53089;BME280;38968;47.696;17.540;2023-02-02T17:07:38;10068860.0;;;7.43;55.57715
53089;BME280;38968;47.696;17.540;2023-02-02T17:12:37;10069620.0;;;7.2;56.68457
53089;BME280;38968;47.696;17.540;2023-02-02T17:17:38;10070140.0;;;7.25;56.94043
53089;BME280;38968;47.696;17.540;2023-02-02T17:22:43;10071370.0;;;7.44;56.49902
53089;BME280;38968;47.696;17.540;2023-02-02T17:27:38;10071540.0;;;7.34;56.08887
53089;BME280;38968;47.696;17.540;2023-02-02T17:32:38;10073360.0;;;7.4;56.82617
53089;BME280;38968;47.696;17.540;2023-02-02T17:37:38;10074480.0;;;7.27;57.20605
53089;BME280;38968;47.696;17.540;2023-02-02T17:42:38;10075860.0;;;7.25;57.07715
53089;BME280;38968;47.696;17.540;2023-02-02T17:47:38;10075610.0;;;7.29;56.81152
53089;BME280;38968;47.696;17.540;2023-02-02T17:52:38;10075420.0;;;7.11;57.34375
53089;BME280;38968;47.696;17.540;2023-02-02T17:57:38;10075160.0;;;7.08;57.30664
53089;BME280;38968;47.696;17.540;2023-02-02T18:02:38;10076300.0;;;7.26;56.6582
53089;BME280;38968;47.696;17.540;2023-02-02T18:07:38;10076370.0;;;7.14;56.7334
53089;BME280;38968;47.696;17.540;2023-02-02T18:12:38;10076960.0;;;6.93;57.34375
53089;BME280;38968;47.696;17.540;2023-02-02T18:17:37;10078180.0;;;7;56.875
53089;BME280;38968;47.696;17.540;2023-02-02T18:22:39;10078600.0;;;6.92;56.95605
53089;BME280;38968;47.696;17.540;2023-02-02T18:27:39;10080640.0;;;6.52;58.12988
53089;BME280;38968;47.696;17.540;2023-02-02T18:32:39;10079870.0;;;6.6;57.85547
53089;BME280;38968;47.696;17.540;2023-02-02T18:37:38;10080460.0;;;6.48;58.18164
53089;BME280;38968;47.696;17.540;2023-02-02T18:42:38;10081350.0;;;6.73;57.28223
53089;BME280;38968;47.696;17.540;2023-02-02T18:47:38;10082210.0;;;6.63;57.26953
53089;BME280;38968;47.696;17.540;2023-02-02T18:52:39;10083490.0;;;6.51;57.49121
53089;BME280;38968;47.696;17.540;2023-02-02T18:57:38;10083740.0;;;6.46;57.88281
53089;BME280;38968;47.696;17.540;2023-02-02T19:02:38;10084100.0;;;6.54;57.43945
53089;BME280;38968;47.696;17.540;2023-02-02T19:07:38;10086710.0;;;6.62;58.08594
53089;BME280;38968;47.696;17.540;2023-02-02T19:12:38;10087910.0;;;6.54;57.22363
53089;BME280;38968;47.696;17.540;2023-02-02T19:17:39;10089530.0;;;6.39;57.60156
53089;BME280;38968;47.696;17.540;2023-02-02T19:22:38;10090580.0;;;6.42;57.60449
53089;BME280;38968;47.696;17.540;2023-02-02T19:27:39;10089700.0;;;6.35;57.75586
53089;BME280;38968;47.696;17.540;2023-02-02T19:32:38;10090590.0;;;6.53;57.2793
53089;BME280;38968;47.696;17.540;2023-02-02T19:37:38;10091600.0;;;6.34;57.85645
53089;BME280;38968;47.696;17.540;2023-02-02T19:42:46;10091540.0;;;6.51;57.09375
53089;BME280;38968;47.696;17.540;2023-02-02T19:47:38;10091560.0;;;6.61;56.8125
53089;BME280;38968;47.696;17.540;2023-02-02T19:52:38;10092470.0;;;6.35;57.35645
53089;BME280;38968;47.696;17.540;2023-02-02T19:57:39;10093100.0;;;6.48;57.02246
53089;BME280;38968;47.696;17.540;2023-02-02T20:03:00;10094320.0;;;6.55;56.79297
53089;BME280;38968;47.696;17.540;2023-02-02T20:07:38;10093550.0;;;6.59;56.54883
53089;BME280;38968;47.696;17.540;2023-02-02T20:12:38;10094400.0;;;6.51;56.58301
53089;BME280;38968;47.696;17.540;2023-02-02T20:17:39;10094070.0;;;6.09;57.4375
53089;BME280;38968;47.696;17.540;2023-02-02T20:22:38;10094190.0;;;6.3;56.96387
53089;BME280;38968;47.696;17.540;2023-02-02T20:27:38;10094590.0;;;6.09;57.33496
53089;BME280;38968;47.696;17.540;2023-02-02T20:32:39;10095710.0;;;6.07;57.7627
53089;BME280;38968;47.696;17.540;2023-02-02T20:37:38;10095680.0;;;5.9;58.46484
53089;BME280;38968;47.696;17.540;2023-02-02T20:42:38;10096630.0;;;6.35;57.51563
53089;BME280;38968;47.696;17.540;2023-02-02T20:47:38;10097140.0;;;6.33;57.53613
53089;BME280;38968;47.696;17.540;2023-02-02T20:52:38;10096460.0;;;6.38;57.31641
53089;BME280;38968;47.696;17.540;2023-02-02T20:57:38;10096620.0;;;6.33;57.01367
53089;BME280;38968;47.696;17.540;2023-02-02T21:02:37;10096720.0;;;6.38;56.79395
53089;BME280;38968;47.696;17.540;2023-02-02T21:07:38;10096780.0;;;6.27;56.94922
53089;BME280;38968;47.696;17.540;2023-02-02T21:12:37;10097560.0;;;6.25;56.79883
53089;BME280;38968;47.696;17.540;2023-02-02T21:17:38;10097610.0;;;6.06;57.31836
53089;BME280;38968;47.696;17.540;2023-02-02T21:22:38;10097200.0;;;6.15;57.01465
53089;BME280;38968;47.696;17.540;2023-02-02T21:27:38;10099110.0;;;5.75;58.12891
53089;BME280;38968;47.696;17.540;2023-02-02T21:32:38;10098900.0;;;6.01;57.24414
53089;BME280;38968;47.696;17.540;2023-02-02T21:37:38;10099920.0;;;5.9;57.30957
53089;BME280;38968;47.696;17.540;2023-02-02T21:42:37;10101090.0;;;6.11;56.80273
53089;BME280;38968;47.696;17.540;2023-02-02T21:47:43;10102450.0;;;6.01;57.08496
53089;BME280;38968;47.696;17.540;2023-02-02T21:52:38;10103150.0;;;6.06;56.95605
53089;BME280;38968;47.696;17.540;2023-02-02T21:57:37;10104690.0;;;5.96;57.04395
53089;BME280;38968;47.696;17.540;2023-02-02T22:02:39;10104620.0;;;6.04;56.71582
53089;BME280;38968;47.696;17.540;2023-02-02T22:07:38;10105230.0;;;6.06;56.67285
53089;BME280;38968;47.696;17.540;2023-02-02T22:12:37;10105580.0;;;6.08;56.49316
53089;BME280;38968;47.696;17.540;2023-02-02T22:17:39;10105300.0;;;5.99;56.68555
53089;BME280;38968;47.696;17.540;2023-02-02T22:22:39;10106080.0;;;5.98;56.78516
53089;BME280;38968;47.696;17.540;2023-02-02T22:27:39;10107240.0;;;5.77;57.4502
53089;BME280;38968;47.696;17.540;2023-02-02T22:32:37;10107550.0;;;5.99;56.88867
53089;BME280;38968;47.696;17.540;2023-02-02T22:37:37;10107180.0;;;5.86;57.30371
53089;BME280;38968;47.696;17.540;2023-02-02T22:42:38;10108320.0;;;5.94;56.95117
53089;BME280;38968;47.696;17.540;2023-02-02T22:47:37;10109700.0;;;5.92;57.02734
53089;BME280;38968;47.696;17.540;2023-02-02T22:52:38;10109770.0;;;5.86;57.34863
53089;BME280;38968;47.696;17.540;2023-02-02T22:57:38;10110470.0;;;5.88;57.23926
53089;BME280;38968;47.696;17.540;2023-02-02T23:02:38;10111080.0;;;5.9;57.09375
53089;BME280;38968;47.696;17.540;2023-02-02T23:07:38;10111360.0;;;6.01;56.80176
53089;BME280;38968;47.696;17.540;2023-02-02T23:12:38;10111900.0;;;6.1;56.51953
53089;BME280;38968;47.696;17.540;2023-02-02T23:17:38;10112140.0;;;6;56.62891
53089;BME280;38968;47.696;17.540;2023-02-02T23:22:37;10113430.0;;;5.97;56.65918
53089;BME280;38968;47.696;17.540;2023-02-02T23:27:38;10113400.0;;;5.83;56.8916
53089;BME280;38968;47.696;17.540;2023-02-02T23:32:37;10113340.0;;;5.95;56.95117
53089;BME280;38968;47.696;17.540;2023-02-02T23:37:38;10114190.0;;;5.89;56.8418
53089;BME280;38968;47.696;17.540;2023-02-02T23:42:37;10113820.0;;;5.78;57.41797
53089;BME280;38968;47.696;17.540;2023-02-02T23:47:38;10114180.0;;;5.83;57.16406
53089;BME280;38968;47.696;17.540;2023-02-02T23:52:38;10115090.0;;;5.69;57.59766
53089;BME280;38968;47.696;17.540;2023-02-02T23:57:38;10115710.0;;;5.74;57.45703
